createdAt,value
2019-01-31T00:02:05.357Z,94664.10
2019-01-31T00:05:11.336Z,94662.80
2019-01-31T00:08:17.349Z,94666.73
2019-01-31T00:11:23.371Z,94665.11
2019-01-31T00:14:25.091Z,94660.16
2019-01-31T00:17:31.072Z,94656.03
2019-01-31T00:20:37.115Z,94655.65
2019-01-31T00:23:43.139Z,94660.28
2019-01-31T00:26:49.135Z,94666.73
2019-01-31T00:29:55.130Z,94659.62
2019-01-31T00:33:01.163Z,94661.73
2019-01-31T00:36:07.149Z,94661.11
2019-01-31T00:39:09.225Z,94659.53
2019-01-31T00:42:15.242Z,94665.37
2019-01-31T00:45:06.342Z,94665.80
2019-01-31T00:48:00.116Z,94660.36
2019-01-31T00:51:06.105Z,94662.05
2019-01-31T00:54:12.092Z,94659.62
2019-01-31T00:57:04.630Z,94660.84
2019-01-31T00:59:54.022Z,94661.92
2019-01-31T01:02:37.256Z,94663.61
2019-01-31T01:05:57.290Z,94663.80
2019-01-31T01:08:46.421Z,94658.81
2019-01-31T01:11:44.912Z,94662.94
2019-01-31T01:14:29.411Z,94665.56
2019-01-31T01:17:18.640Z,94664.48
2019-01-31T01:20:11.086Z,94660.73
2019-01-31T01:23:11.719Z,94659.17
2019-01-31T01:26:19.086Z,94658.23
2019-01-31T01:29:23.483Z,94650.13
2019-01-31T01:32:34.777Z,94659.69
2019-01-31T01:35:44.820Z,94657.78
2019-01-31T01:39:05.423Z,94654.84
2019-01-31T01:42:09.551Z,94652.53
2019-01-31T01:45:32.556Z,94659.09
2019-01-31T01:48:27.486Z,94642.73
2019-01-31T01:51:36.630Z,94642.91
2019-01-31T01:54:51.505Z,94644.30
2019-01-31T01:57:42.589Z,94648.17
2019-01-31T02:00:49.842Z,94648.83
2019-01-31T02:03:49.159Z,94641.41
2019-01-31T02:07:15.908Z,94638.44
2019-01-31T02:10:31.395Z,94630.63
2019-01-31T02:13:34.737Z,94633.81
2019-01-31T02:16:54.607Z,94626.09
2019-01-31T02:20:09.602Z,94625.66
2019-01-31T02:23:32.720Z,94621.78
2019-01-31T02:26:15.893Z,94618.85
2019-01-31T02:29:08.248Z,94613.42
2019-01-31T02:31:59.810Z,94613.92
2019-01-31T02:35:20.639Z,94607.30
2019-01-31T02:38:18.017Z,94614.80
2019-01-31T02:41:21.426Z,94612.67
2019-01-31T02:44:13.133Z,94606.30
2019-01-31T02:47:20.378Z,94606.30
2019-01-31T02:50:09.707Z,94613.23
2019-01-31T02:53:36.460Z,94605.30
2019-01-31T02:56:25.905Z,94604.23
2019-01-31T02:59:24.433Z,94599.77
2019-01-31T03:02:14.813Z,94593.27
2019-01-31T03:05:25.244Z,94593.14
2019-01-31T03:08:27.126Z,94586.84
2019-01-31T03:11:31.870Z,94586.30
2019-01-31T03:14:17.178Z,94583.73
2019-01-31T03:17:18.047Z,94571.81
2019-01-31T03:20:24.039Z,94576.56
2019-01-31T03:23:20.274Z,94584.23
2019-01-31T03:26:26.310Z,94571.94
2019-01-31T03:29:32.312Z,94571.89
2019-01-31T03:32:38.351Z,94571.52
2019-01-31T03:35:44.404Z,94572.52
2019-01-31T03:38:36.980Z,94567.02
2019-01-31T03:41:42.964Z,94564.45
2019-01-31T03:44:48.958Z,94569.94
2019-01-31T03:47:54.932Z,94561.35
2019-01-31T03:51:00.932Z,94559.78
2019-01-31T03:54:07.024Z,94552.48
2019-01-31T03:57:13.036Z,94551.80
2019-01-31T04:00:19.021Z,94549.92
2019-01-31T04:03:12.190Z,94553.13
2019-01-31T04:06:18.174Z,94550.14
2019-01-31T04:08:45.227Z,94557.47
2019-01-31T04:11:12.269Z,94555.30
2019-01-31T04:13:39.321Z,94549.06
2019-01-31T04:16:06.374Z,94551.68
2019-01-31T04:18:33.428Z,94548.12
2019-01-31T04:21:00.457Z,94541.94
2019-01-31T04:23:27.501Z,94538.19
2019-01-31T04:25:54.544Z,94542.13
2019-01-31T04:28:21.626Z,94538.64
2019-01-31T04:30:48.670Z,94542.70
2019-01-31T04:33:15.714Z,94542.44
2019-01-31T04:35:42.786Z,94543.03
2019-01-31T04:38:09.838Z,94543.47
2019-01-31T04:40:36.913Z,94542.83
2019-01-31T04:43:04.055Z,94536.30
2019-01-31T04:45:31.120Z,94532.86
2019-01-31T04:47:58.172Z,94532.41
2019-01-31T04:50:25.268Z,94526.91
2019-01-31T04:52:52.324Z,94526.94
2019-01-31T04:55:19.361Z,94526.06
2019-01-31T04:57:46.505Z,94520.73
2019-01-31T05:00:15.345Z,94517.31
2019-01-31T05:02:42.461Z,94515.19
2019-01-31T05:05:09.490Z,94512.44
2019-01-31T05:07:36.552Z,94511.63
2019-01-31T05:10:05.198Z,94510.81
2019-01-31T05:12:32.240Z,94511.13
2019-01-31T05:14:59.268Z,94507.57
2019-01-31T05:17:26.310Z,94502.16
2019-01-31T05:19:53.340Z,94496.93
2019-01-31T05:22:20.412Z,94497.11
2019-01-31T05:24:47.457Z,94488.81
2019-01-31T05:27:14.502Z,94492.26
2019-01-31T05:29:41.553Z,94483.12
2019-01-31T05:32:08.566Z,94471.08
2019-01-31T05:34:35.637Z,94471.58
2019-01-31T05:37:02.659Z,94464.86
2019-01-31T05:39:29.704Z,94461.70
2019-01-31T05:41:56.728Z,94465.84
2019-01-31T05:44:23.790Z,94459.78
2019-01-31T05:46:50.836Z,94453.86
2019-01-31T05:49:17.850Z,94457.34
2019-01-31T05:51:44.896Z,94445.69
2019-01-31T05:54:11.941Z,94449.55
2019-01-31T05:56:38.961Z,94456.63
2019-01-31T05:59:06.034Z,94458.72
2019-01-31T06:01:33.144Z,94458.77
2019-01-31T06:04:00.224Z,94463.41
2019-01-31T06:06:27.289Z,94466.98
2019-01-31T06:08:54.377Z,94466.27
2019-01-31T06:11:21.438Z,94470.42
2019-01-31T06:13:48.470Z,94470.03
2019-01-31T06:16:15.527Z,94467.61
2019-01-31T06:18:42.570Z,94473.69
2019-01-31T06:21:09.623Z,94474.30
2019-01-31T06:23:36.677Z,94466.24
2019-01-31T06:26:03.741Z,94465.30
2019-01-31T06:28:30.905Z,94461.54
2019-01-31T06:30:57.932Z,94457.44
2019-01-31T06:33:24.962Z,94458.50
2019-01-31T06:35:52.129Z,94460.48
2019-01-31T06:38:19.151Z,94464.46
2019-01-31T06:40:46.161Z,94464.02
2019-01-31T06:43:13.201Z,94445.07
2019-01-31T06:45:40.233Z,94444.03
2019-01-31T06:48:07.279Z,94444.83
2019-01-31T06:50:34.322Z,94448.42
2019-01-31T06:53:01.359Z,94439.65
2019-01-31T06:55:28.391Z,94444.09
2019-01-31T06:57:55.441Z,94448.25
2019-01-31T07:00:22.589Z,94441.45
2019-01-31T07:02:49.772Z,94439.16
2019-01-31T07:05:16.907Z,94450.50
2019-01-31T07:07:44.172Z,94456.03
2019-01-31T07:10:21.914Z,94462.25
2019-01-31T07:12:48.955Z,94470.65
2019-01-31T07:15:15.998Z,94469.47
2019-01-31T07:17:43.085Z,94470.13
2019-01-31T07:20:11.052Z,94474.62
2019-01-31T07:22:38.082Z,94473.76
2019-01-31T07:25:05.498Z,94478.05
2019-01-31T07:27:32.531Z,94482.02
2019-01-31T07:29:59.594Z,94477.11
2019-01-31T07:32:26.723Z,94481.34
2019-01-31T07:34:53.786Z,94475.72
2019-01-31T07:37:20.827Z,94478.48
2019-01-31T07:39:47.857Z,94470.34
2019-01-31T07:42:14.908Z,94470.45
2019-01-31T07:44:41.952Z,94472.67
2019-01-31T07:47:09.028Z,94470.36
2019-01-31T07:49:36.756Z,94471.12
2019-01-31T07:52:03.850Z,94474.63
2019-01-31T07:54:30.914Z,94472.70
2019-01-31T07:56:58.006Z,94479.33
2019-01-31T07:59:25.048Z,94489.20
2019-01-31T08:01:52.100Z,94483.95
2019-01-31T08:04:19.164Z,94486.19
2019-01-31T08:06:46.193Z,94480.37
2019-01-31T08:09:13.244Z,94477.66
2019-01-31T08:11:40.316Z,94476.05
2019-01-31T08:14:07.385Z,94474.08
2019-01-31T08:16:34.426Z,94480.07
2019-01-31T08:19:01.480Z,94487.42
2019-01-31T08:21:28.513Z,94477.39
2019-01-31T08:23:55.584Z,94471.96
2019-01-31T08:26:22.633Z,94479.01
2019-01-31T08:28:49.682Z,94473.20
2019-01-31T08:31:16.729Z,94477.17
2019-01-31T08:33:43.781Z,94482.59
2019-01-31T08:36:10.855Z,94485.03
2019-01-31T08:38:37.926Z,94487.74
2019-01-31T08:41:04.979Z,94487.17
2019-01-31T08:43:32.035Z,94497.41
2019-01-31T08:45:59.093Z,94489.91
2019-01-31T08:48:26.129Z,94484.43
2019-01-31T08:50:53.191Z,94493.06
2019-01-31T08:53:20.231Z,94493.54
2019-01-31T08:55:47.668Z,94489.81
2019-01-31T08:58:14.730Z,94482.98
2019-01-31T09:00:42.104Z,94483.34
2019-01-31T09:03:09.171Z,94481.53
2019-01-31T09:05:36.234Z,94485.81
2019-01-31T09:08:03.261Z,94485.44
2019-01-31T09:10:32.641Z,94482.16
2019-01-31T09:13:01.462Z,94483.08
2019-01-31T09:15:28.521Z,94487.47
2019-01-31T09:17:55.614Z,94490.12
2019-01-31T09:20:36.303Z,94493.80
2019-01-31T09:23:31.533Z,94490.18
2019-01-31T09:26:42.157Z,94487.05
2019-01-31T09:29:43.331Z,94492.32
2019-01-31T09:32:46.407Z,94489.97
2019-01-31T09:35:51.077Z,94489.53
2019-01-31T09:38:41.009Z,94484.77
2019-01-31T09:41:36.488Z,94485.52
2019-01-31T09:44:53.096Z,94487.76
2019-01-31T09:47:59.117Z,94489.44
2019-01-31T09:51:05.115Z,94481.89
2019-01-31T09:54:11.112Z,94481.72
2019-01-31T09:57:17.121Z,94487.53
2019-01-31T10:00:27.668Z,94493.59
2019-01-31T10:03:37.906Z,94493.06
2019-01-31T10:06:27.625Z,94487.70
2019-01-31T10:09:33.625Z,94487.61
2019-01-31T10:12:23.752Z,94487.61
2019-01-31T10:15:29.772Z,94480.64
2019-01-31T10:18:35.838Z,94484.53
2019-01-31T10:21:36.909Z,94484.53
2019-01-31T10:24:29.373Z,94478.28
2019-01-31T10:27:40.952Z,94465.95
2019-01-31T10:30:41.407Z,94456.41
2019-01-31T10:34:02.287Z,94456.41
2019-01-31T10:36:48.102Z,94470.36
2019-01-31T10:39:35.699Z,94468.25
2019-01-31T10:42:36.581Z,94455.91
2019-01-31T10:45:54.370Z,94455.91
2019-01-31T10:49:01.430Z,94458.48
2019-01-31T10:52:08.804Z,94458.48
2019-01-31T10:55:35.661Z,94453.96
2019-01-31T10:58:48.859Z,94458.80
2019-01-31T11:01:33.550Z,94458.80
2019-01-31T11:04:34.157Z,94453.52
2019-01-31T11:07:40.210Z,94448.01
2019-01-31T11:10:38.699Z,94443.09
2019-01-31T11:13:49.938Z,94444.23
2019-01-31T11:16:50.007Z,94443.29
2019-01-31T11:20:06.725Z,94429.93
2019-01-31T11:22:47.840Z,94429.93
2019-01-31T11:25:35.537Z,94432.32
2019-01-31T11:28:17.841Z,94430.27
2019-01-31T11:31:06.025Z,94428.50
2019-01-31T11:34:15.952Z,94416.46
2019-01-31T11:37:29.835Z,94425.12
2019-01-31T11:40:31.178Z,94414.87
2019-01-31T11:43:40.686Z,94414.87
2019-01-31T11:46:55.320Z,94405.00
2019-01-31T11:50:02.599Z,94415.30
2019-01-31T11:52:55.478Z,94421.84
2019-01-31T11:55:37.461Z,94421.94
2019-01-31T11:58:54.333Z,94418.92
2019-01-31T12:01:21.391Z,94418.31
2019-01-31T12:03:54.832Z,94407.61
2019-01-31T12:06:21.890Z,94410.09
2019-01-31T12:08:48.949Z,94404.20
2019-01-31T12:11:16.020Z,94403.45
2019-01-31T12:13:43.093Z,94404.66
2019-01-31T12:16:10.150Z,94396.78
2019-01-31T12:18:37.257Z,94393.39
2019-01-31T12:21:04.309Z,94388.45
2019-01-31T12:23:32.370Z,94392.03
2019-01-31T12:25:59.755Z,94387.64
2019-01-31T12:28:26.802Z,94392.54
2019-01-31T12:30:53.878Z,94383.68
2019-01-31T12:33:20.941Z,94380.83
2019-01-31T12:35:48.007Z,94376.47
2019-01-31T12:38:15.065Z,94372.38
2019-01-31T12:40:42.132Z,94376.21
2019-01-31T12:43:09.194Z,94376.84
2019-01-31T12:45:36.235Z,94374.31
2019-01-31T12:48:03.506Z,94371.48
2019-01-31T12:50:30.590Z,94361.49
2019-01-31T12:52:57.646Z,94361.66
2019-01-31T12:55:24.819Z,94358.59
2019-01-31T12:57:51.912Z,94352.78
2019-01-31T13:00:23.984Z,94349.38
2019-01-31T13:02:51.090Z,94349.41
2019-01-31T13:05:18.269Z,94347.66
2019-01-31T13:07:45.526Z,94341.89
2019-01-31T13:10:12.984Z,94335.56
2019-01-31T13:12:48.275Z,94341.44
2019-01-31T13:15:09.298Z,94332.95
2019-01-31T13:17:36.330Z,94327.94
2019-01-31T13:20:07.184Z,94330.15
2019-01-31T13:22:34.193Z,94327.03
2019-01-31T13:25:01.249Z,94325.98
2019-01-31T13:27:28.291Z,94324.19
2019-01-31T13:29:55.355Z,94322.63
2019-01-31T13:32:22.518Z,94315.77
2019-01-31T13:34:49.574Z,94311.84
2019-01-31T13:37:16.628Z,94310.84
2019-01-31T13:39:43.698Z,94319.39
2019-01-31T13:42:10.724Z,94317.07
2019-01-31T13:44:37.820Z,94312.63
2019-01-31T13:47:04.961Z,94315.56
2019-01-31T13:49:32.019Z,94318.78
2019-01-31T13:51:59.066Z,94316.94
2019-01-31T13:54:26.593Z,94317.45
2019-01-31T13:56:53.668Z,94310.77
2019-01-31T13:59:20.731Z,94303.05
2019-01-31T14:01:47.816Z,94308.08
2019-01-31T14:04:14.930Z,94308.08
2019-01-31T14:06:42.000Z,94302.77
2019-01-31T14:09:09.182Z,94305.42
2019-01-31T14:11:36.312Z,94305.38
2019-01-31T14:14:09.220Z,94298.41
2019-01-31T14:16:33.123Z,94303.43
2019-01-31T14:19:00.395Z,94303.66
2019-01-31T14:21:27.455Z,94305.78
2019-01-31T14:23:54.994Z,94304.97
2019-01-31T14:26:22.128Z,94304.69
2019-01-31T14:28:49.184Z,94305.68
2019-01-31T14:31:16.309Z,94316.81
2019-01-31T14:33:43.413Z,94314.39
2019-01-31T14:36:10.555Z,94315.44
2019-01-31T14:38:37.638Z,94316.19
2019-01-31T14:41:04.726Z,94309.51
2019-01-31T14:43:32.060Z,94308.94
2019-01-31T14:45:59.235Z,94308.40
2019-01-31T14:48:26.683Z,94307.55
2019-01-31T14:50:53.726Z,94309.63
2019-01-31T14:53:20.965Z,94314.87
2019-01-31T14:55:48.240Z,94315.86
2019-01-31T14:58:15.319Z,94320.02
2019-01-31T15:00:42.360Z,94325.53
2019-01-31T15:03:09.478Z,94321.73
2019-01-31T15:05:37.020Z,94322.77
2019-01-31T15:08:04.443Z,94319.78
2019-01-31T15:10:31.628Z,94329.52
2019-01-31T15:12:58.750Z,94327.85
2019-01-31T15:15:27.126Z,94322.48
2019-01-31T15:17:54.349Z,94322.60
2019-01-31T15:20:34.284Z,94330.66
2019-01-31T15:22:52.756Z,94323.39
2019-01-31T15:25:20.120Z,94324.77
2019-01-31T15:27:47.318Z,94321.23
2019-01-31T15:30:17.552Z,94326.50
2019-01-31T15:32:45.189Z,94327.44
2019-01-31T15:35:12.569Z,94333.42
2019-01-31T15:37:39.798Z,94326.22
2019-01-31T15:40:09.891Z,94330.15
2019-01-31T15:42:37.375Z,94330.50
2019-01-31T15:45:05.632Z,94331.41
2019-01-31T15:47:32.810Z,94329.28
2019-01-31T15:50:00.229Z,94332.84
2019-01-31T15:52:27.367Z,94326.41
2019-01-31T15:54:54.582Z,94323.59
2019-01-31T15:57:21.662Z,94333.83
2019-01-31T15:59:48.732Z,94330.08
2019-01-31T16:02:16.130Z,94329.02
2019-01-31T16:04:43.329Z,94330.87
2019-01-31T16:07:10.461Z,94345.40
2019-01-31T16:09:37.723Z,94347.38
2019-01-31T16:12:05.076Z,94339.83
2019-01-31T16:14:32.171Z,94344.84
2019-01-31T16:16:59.336Z,94337.39
2019-01-31T16:19:26.465Z,94337.39
2019-01-31T16:21:53.555Z,94348.97
2019-01-31T16:24:20.614Z,94346.59
2019-01-31T16:26:47.792Z,94350.82
2019-01-31T16:29:14.911Z,94354.38
2019-01-31T16:31:42.206Z,94351.39
2019-01-31T16:34:09.547Z,94361.21
2019-01-31T16:36:36.727Z,94366.20
2019-01-31T16:39:07.470Z,94361.50
2019-01-31T16:41:34.640Z,94366.98
2019-01-31T16:44:01.796Z,94366.69
2019-01-31T16:46:29.342Z,94354.37
2019-01-31T16:48:56.558Z,94335.83
2019-01-31T16:51:23.687Z,94361.63
2019-01-31T16:53:51.285Z,94361.23
2019-01-31T16:56:20.543Z,94353.95
2019-01-31T16:58:49.960Z,94355.37
2019-01-31T17:01:17.067Z,94358.32
2019-01-31T17:03:44.306Z,94362.03
2019-01-31T17:06:11.457Z,94366.52
2019-01-31T17:08:38.768Z,94369.73
2019-01-31T17:11:08.371Z,94378.06
2019-01-31T17:13:35.691Z,94382.16
2019-01-31T17:16:02.939Z,94378.67
2019-01-31T17:18:30.093Z,94381.88
2019-01-31T17:20:57.285Z,94383.26
2019-01-31T17:23:24.806Z,94378.32
2019-01-31T17:25:51.979Z,94372.20
2019-01-31T17:28:19.125Z,94379.08
2019-01-31T17:30:46.265Z,94380.64
2019-01-31T17:33:13.441Z,94377.71
2019-01-31T17:35:40.843Z,94374.00
2019-01-31T17:38:08.325Z,94371.68
2019-01-31T17:40:37.652Z,94371.17
2019-01-31T17:43:05.518Z,94361.20
2019-01-31T17:45:33.471Z,94366.95
2019-01-31T17:48:00.970Z,94368.17
2019-01-31T17:50:28.414Z,94364.73
2019-01-31T17:52:55.546Z,94359.67
2019-01-31T17:55:22.729Z,94356.55
2019-01-31T17:57:50.996Z,94351.69
2019-01-31T18:00:24.452Z,94346.53
2019-01-31T18:02:51.976Z,94342.39
2019-01-31T18:05:19.115Z,94340.57
2019-01-31T18:07:46.281Z,94334.00
2019-01-31T18:10:16.467Z,94333.19
2019-01-31T18:12:43.677Z,94321.36
2019-01-31T18:15:11.468Z,94328.14
2019-01-31T18:17:38.679Z,94322.98
2019-01-31T18:20:06.770Z,94325.36
2019-01-31T18:22:33.902Z,94325.77
2019-01-31T18:25:06.416Z,94324.45
2019-01-31T18:27:33.590Z,94312.73
2019-01-31T18:30:01.871Z,94307.59
2019-01-31T18:32:29.449Z,94309.39
2019-01-31T18:34:56.923Z,94305.16
2019-01-31T18:37:24.404Z,94302.73
2019-01-31T18:39:51.621Z,94297.59
2019-01-31T18:42:18.871Z,94299.48
2019-01-31T18:44:46.217Z,94292.21
2019-01-31T18:47:13.509Z,94292.52
2019-01-31T18:49:41.716Z,94282.92
2019-01-31T18:52:08.966Z,94267.87
2019-01-31T18:54:39.358Z,94266.96
2019-01-31T18:57:06.924Z,94261.30
2019-01-31T18:59:34.442Z,94263.12
2019-01-31T19:02:01.743Z,94263.49
2019-01-31T19:04:29.352Z,94269.14
2019-01-31T19:06:57.987Z,94271.53
2019-01-31T19:09:26.809Z,94274.16
2019-01-31T19:11:55.020Z,94278.59
2019-01-31T19:14:22.592Z,94283.52
2019-01-31T19:16:50.653Z,94279.77
2019-01-31T19:19:18.025Z,94285.13
2019-01-31T19:21:45.477Z,94276.52
2019-01-31T19:24:14.202Z,94282.69
2019-01-31T19:26:42.111Z,94269.64
2019-01-31T19:29:09.461Z,94266.05
2019-01-31T19:31:40.372Z,94258.27
2019-01-31T19:34:08.620Z,94262.81
2019-01-31T19:36:36.255Z,94250.17
2019-01-31T19:39:09.845Z,94245.20
2019-01-31T19:41:37.570Z,94252.59
2019-01-31T19:44:08.063Z,94258.67
2019-01-31T19:46:35.631Z,94254.67
2019-01-31T19:49:03.864Z,94251.44
2019-01-31T19:51:32.661Z,94248.80
2019-01-31T19:54:00.010Z,94238.50
2019-01-31T19:56:27.741Z,94241.63
2019-01-31T19:58:57.145Z,94230.61
2019-01-31T20:01:26.994Z,94223.13
2019-01-31T20:03:54.852Z,94229.61
2019-01-31T20:06:30.242Z,94227.70
2019-01-31T20:09:15.958Z,94232.86
2019-01-31T20:11:43.847Z,94233.27
2019-01-31T20:14:12.514Z,94236.13
2019-01-31T20:16:40.190Z,94227.73
2019-01-31T20:19:08.001Z,94221.33
2019-01-31T20:24:41.194Z,94213.41
2019-01-31T20:27:08.541Z,94209.97
2019-01-31T20:29:56.728Z,94212.09
2019-01-31T20:32:25.275Z,94203.66
2019-01-31T20:35:26.368Z,94197.03
2019-01-31T20:37:55.060Z,94194.72
2019-01-31T20:40:41.926Z,94207.08
2019-01-31T20:43:09.242Z,94189.83
2019-01-31T20:45:36.641Z,94184.48
2019-01-31T20:48:06.480Z,94186.51
2019-01-31T20:50:36.832Z,94182.27
2019-01-31T20:53:07.100Z,94185.91
2019-01-31T20:55:35.081Z,94182.27
2019-01-31T20:58:03.563Z,94178.32
2019-01-31T21:00:38.787Z,94171.04
2019-01-31T21:03:06.801Z,94162.89
2019-01-31T21:05:38.287Z,94158.97
2019-01-31T21:08:06.573Z,94154.03
2019-01-31T21:10:33.848Z,94153.73
2019-01-31T21:13:01.059Z,94139.58
2019-01-31T21:15:28.248Z,94147.81
2019-01-31T21:17:55.704Z,94145.41
2019-01-31T21:20:26.420Z,94152.97
2019-01-31T21:22:55.729Z,94143.12
2019-01-31T21:25:25.131Z,94156.41
2019-01-31T21:27:52.288Z,94143.93
2019-01-31T21:30:22.514Z,94146.64
2019-01-31T21:32:49.655Z,94142.99
2019-01-31T21:35:18.369Z,94141.08
2019-01-31T21:37:47.787Z,94138.88
2019-01-31T21:40:14.939Z,94135.90
2019-01-31T21:42:42.077Z,94126.73
2019-01-31T21:45:10.555Z,94130.52
2019-01-31T21:47:40.095Z,94128.52
2019-01-31T21:50:09.486Z,94136.78
2019-01-31T21:52:36.701Z,94131.77
2019-01-31T21:55:04.463Z,94127.36
2019-01-31T21:57:33.828Z,94131.67
2019-01-31T22:00:00.967Z,94131.58
2019-01-31T22:02:28.076Z,94135.44
2019-01-31T22:04:55.182Z,94127.63
2019-01-31T22:07:22.274Z,94122.97
2019-01-31T22:09:49.372Z,94122.76
2019-01-31T22:12:16.425Z,94113.64
2019-01-31T22:14:43.489Z,94109.53
2019-01-31T22:17:14.849Z,94105.29
2019-01-31T22:19:39.499Z,94100.75
2019-01-31T22:22:06.584Z,94095.48
2019-01-31T22:24:33.638Z,94090.02
2019-01-31T22:27:00.705Z,94086.45
2019-01-31T22:29:27.745Z,94100.36
2019-01-31T22:31:54.806Z,94095.48
2019-01-31T22:34:21.846Z,94093.87
2019-01-31T22:36:48.931Z,94084.31
2019-01-31T22:39:15.991Z,94082.88
2019-01-31T22:41:43.062Z,94080.66
2019-01-31T22:44:10.084Z,94092.45
2019-01-31T22:46:37.185Z,94098.39
2019-01-31T22:49:04.267Z,94084.34
2019-01-31T22:51:31.435Z,94091.88
2019-01-31T22:53:58.481Z,94095.19
2019-01-31T22:56:25.526Z,94097.47
2019-01-31T22:58:52.587Z,94089.86
2019-01-31T23:01:37.539Z,94095.56
2019-01-31T23:04:05.106Z,94098.33
2019-01-31T23:06:32.139Z,94086.98
2019-01-31T23:08:59.239Z,94088.90
2019-01-31T23:11:26.397Z,94084.14
2019-01-31T23:13:53.433Z,94074.70
2019-01-31T23:16:20.473Z,94073.47
2019-01-31T23:18:47.543Z,94065.64
2019-01-31T23:21:14.589Z,94054.05
2019-01-31T23:23:41.627Z,94058.00
2019-01-31T23:26:08.667Z,94051.16
2019-01-31T23:28:35.685Z,94045.22
2019-01-31T23:31:02.869Z,94059.77
2019-01-31T23:33:29.898Z,94050.86
2019-01-31T23:35:56.961Z,94061.02
2019-01-31T23:38:24.026Z,94059.33
2019-01-31T23:40:51.053Z,94053.91
2019-01-31T23:43:18.090Z,94050.90
2019-01-31T23:45:45.106Z,94050.69
2019-01-31T23:48:12.149Z,94047.76
2019-01-31T23:50:39.189Z,94051.20
2019-01-31T23:53:06.226Z,94044.53
2019-01-31T23:55:33.278Z,94049.53
2019-01-31T23:58:00.322Z,94061.00
